PWSweather.com
Personal Weather Stations
Station Observations
MAKAWAOWX1
Up Country Maui, Makawao, HI 96768

Up Country MauiMakawao, HI 96768

Lat: 20.856944, Lon: -156.3149667

Elevation: 1500

Station Type: Davis Vantage Pro

Latest ConditionsUpdated 11:20:30 PM HST Friday, Oct 24, 2014
Currently Today's Max Today's Min Today's Average
Temperature 70.2°F21.2°C 81.7°F27.6°C 64.0°F17.8°C 72.4°F22.4°C
Dew Point 62.3°F16.8°C 71.4°F21.9°C 59.3°F15.2°C 65.2°F18.4°C
Winds 4.2 mph E6.8 kmh E 12.3 mph E19.8 kmh E - 5.4 mph 8.7 kmh
Wind Gusts 8.0 mph12.9 kmh 20.0 mph32.2 kmh - -
Humidity 76% 96% 63% 79%
Pressure 29.96 in1014.6 mb 29.98 in1015.2 mb 29.89 in1012.2 mb -
Precipitation - 0.15 in3.8 mm - -
Hour Temp Dew Point Humidity Winds Wind Gusts Pressure Precip Precip Rate Daily Precip Total
11:20 PM 70.2°F21.2°C 62.3°F16.8°C 76% 4.2 mph E6.8 kmh E 8.0 mph12.9 kmh 29.96 in1014.6 mb 0.00 in0.0 mm 0.00 in/hr0.0 mm/hr 0.15 in3.8 mm
11:10 PM 70.2°F21.2°C 62.6°F17.0°C 77% 5.1 mph E8.2 kmh E 7.0 mph11.3 kmh 29.96 in1014.6 mb 0.00 in0.0 mm 0.00 in/hr0.0 mm/hr 0.15 in3.8 mm
11:00 PM 70.2°F21.2°C 63.0°F17.2°C 78% 4.4 mph ESE7.1 kmh ESE 9.0 mph14.5 kmh 29.96 in1014.6 mb 0.00 in0.0 mm 0.00 in/hr0.0 mm/hr 0.15 in3.8 mm
10:50 PM 70.3°F21.3°C 63.4°F17.4°C 79% 5.8 mph E9.3 kmh E 9.0 mph14.5 kmh 29.97 in1014.9 mb 0.00 in0.0 mm 0.00 in/hr0.0 mm/hr 0.15 in3.8 mm
10:40 PM 70.4°F21.3°C 64.0°F17.8°C 80% 4.7 mph ENE7.6 kmh ENE 10.0 mph16.1 kmh 29.97 in1014.9 mb 0.00 in0.0 mm 0.00 in/hr0.0 mm/hr 0.15 in3.8 mm
10:30 PM 70.5°F21.4°C 63.6°F17.6°C 79% 5.3 mph E8.5 kmh E 7.0 mph11.3 kmh 29.97 in1014.9 mb 0.00 in0.0 mm 0.00 in/hr0.0 mm/hr 0.15 in3.8 mm
10:20 PM 70.8°F21.6°C 63.6°F17.6°C 78% 5.9 mph ENE9.5 kmh ENE 12.0 mph19.3 kmh 29.97 in1014.9 mb 0.00 in0.0 mm 0.00 in/hr0.0 mm/hr 0.15 in3.8 mm
10:10 PM 70.8°F21.6°C 64.3°F17.9°C 80% 10.2 mph E16.4 kmh E 11.0 mph17.7 kmh 29.97 in1014.9 mb 0.00 in0.0 mm 0.00 in/hr0.0 mm/hr 0.15 in3.8 mm
10:00 PM 71.0°F21.7°C 63.4°F17.4°C 77% 8.6 mph E13.8 kmh E 12.0 mph19.3 kmh 29.97 in1014.9 mb 0.00 in0.0 mm 0.00 in/hr0.0 mm/hr 0.15 in3.8 mm
09:50 PM 70.9°F21.6°C 63.0°F17.2°C 76% 7.3 mph E11.7 kmh E 9.0 mph14.5 kmh 29.97 in1014.9 mb 0.00 in0.0 mm 0.00 in/hr0.0 mm/hr 0.15 in3.8 mm
09:40 PM 70.4°F21.3°C 62.5°F16.9°C 76% 10.1 mph ENE16.3 kmh ENE 14.0 mph22.5 kmh 29.98 in1015.2 mb 0.00 in0.0 mm 0.00 in/hr0.0 mm/hr 0.15 in3.8 mm
09:30 PM 70.5°F21.4°C 62.2°F16.8°C 75% 4.4 mph ENE7.1 kmh ENE 8.0 mph12.9 kmh 29.98 in1015.2 mb 0.00 in0.0 mm 0.00 in/hr0.0 mm/hr 0.15 in3.8 mm
09:20 PM 70.6°F21.4°C 61.9°F16.6°C 74% 5.1 mph E8.2 kmh E 9.0 mph14.5 kmh 29.98 in1015.2 mb 0.00 in0.0 mm 0.00 in/hr0.0 mm/hr 0.15 in3.8 mm
09:10 PM 70.8°F21.6°C 61.7°F16.5°C 73% 5.7 mph E9.2 kmh E 8.0 mph12.9 kmh 29.97 in1014.9 mb 0.00 in0.0 mm 0.00 in/hr0.0 mm/hr 0.15 in3.8 mm
09:00 PM 71.0°F21.7°C 62.3°F16.8°C 74% 6.6 mph E10.6 kmh E 9.0 mph14.5 kmh 29.97 in1014.9 mb 0.00 in0.0 mm 0.00 in/hr0.0 mm/hr 0.15 in3.8 mm
08:50 PM 71.2°F21.8°C 62.9°F17.2°C 75% 6.2 mph E10.0 kmh E 7.0 mph11.3 kmh 29.97 in1014.9 mb 0.00 in0.0 mm 0.00 in/hr0.0 mm/hr 0.15 in3.8 mm
08:40 PM 71.1°F21.7°C 62.8°F17.1°C 75% 6.2 mph E10.0 kmh E 12.0 mph19.3 kmh 29.97 in1014.9 mb 0.00 in0.0 mm 0.00 in/hr0.0 mm/hr 0.15 in3.8 mm
08:30 PM 71.2°F21.8°C 62.1°F16.7°C 73% 5.0 mph E8.0 kmh E 7.0 mph11.3 kmh 29.97 in1014.9 mb 0.00 in0.0 mm 0.00 in/hr0.0 mm/hr 0.15 in3.8 mm
08:20 PM 71.2°F21.8°C 62.1°F16.7°C 73% 7.2 mph E11.6 kmh E 11.0 mph17.7 kmh 29.97 in1014.9 mb 0.00 in0.0 mm 0.00 in/hr0.0 mm/hr 0.15 in3.8 mm
08:10 PM 71.4°F21.9°C 61.9°F16.6°C 72% 3.7 mph E6.0 kmh E 7.0 mph11.3 kmh 29.97 in1014.9 mb 0.00 in0.0 mm 0.00 in/hr0.0 mm/hr 0.15 in3.8 mm
08:00 PM 71.7°F22.1°C 61.8°F16.6°C 71% 6.8 mph E10.9 kmh E 8.0 mph12.9 kmh 29.97 in1014.9 mb 0.00 in0.0 mm 0.00 in/hr0.0 mm/hr 0.15 in3.8 mm
07:50 PM 71.5°F21.9°C 61.6°F16.4°C 71% 6.9 mph E11.1 kmh E 11.0 mph17.7 kmh 29.96 in1014.6 mb 0.00 in0.0 mm 0.00 in/hr0.0 mm/hr 0.15 in3.8 mm
07:40 PM 71.6°F22.0°C 61.7°F16.5°C 71% 6.9 mph E11.1 kmh E 7.0 mph11.3 kmh 29.96 in1014.6 mb 0.00 in0.0 mm 0.00 in/hr0.0 mm/hr 0.15 in3.8 mm
07:30 PM 71.3°F21.8°C 61.0°F16.1°C 70% 7.1 mph ENE11.4 kmh ENE 14.0 mph22.5 kmh 29.96 in1014.6 mb 0.00 in0.0 mm 0.00 in/hr0.0 mm/hr 0.15 in3.8 mm
07:20 PM 71.1°F21.7°C 60.4°F15.8°C 69% 5.2 mph ENE8.4 kmh ENE 13.0 mph20.9 kmh 29.96 in1014.6 mb 0.00 in0.0 mm 0.00 in/hr0.0 mm/hr 0.15 in3.8 mm
07:10 PM 71.0°F21.7°C 59.9°F15.5°C 68% 2.9 mph E4.7 kmh E 10.0 mph16.1 kmh 29.95 in1014.2 mb 0.00 in0.0 mm 0.00 in/hr0.0 mm/hr 0.15 in3.8 mm
07:00 PM 71.3°F21.8°C 60.2°F15.7°C 68% 4.5 mph E7.2 kmh E 5.0 mph8.0 kmh 29.95 in1014.2 mb 0.00 in0.0 mm 0.00 in/hr0.0 mm/hr 0.15 in3.8 mm
06:50 PM 71.2°F21.8°C 59.7°F15.4°C 67% 6.0 mph E9.7 kmh E 6.0 mph9.7 kmh 29.95 in1014.2 mb 0.00 in0.0 mm 0.00 in/hr0.0 mm/hr 0.15 in3.8 mm
06:40 PM 71.6°F22.0°C 59.7°F15.4°C 66% 2.8 mph ESE4.5 kmh ESE 6.0 mph9.7 kmh 29.95 in1014.2 mb 0.00 in0.0 mm 0.00 in/hr0.0 mm/hr 0.15 in3.8 mm
06:30 PM 72.2°F22.3°C 59.3°F15.2°C 64% 1.9 mph ESE3.1 kmh ESE 2.0 mph3.2 kmh 29.95 in1014.2 mb 0.00 in0.0 mm 0.00 in/hr0.0 mm/hr 0.15 in3.8 mm
06:20 PM 72.4°F22.4°C 59.6°F15.3°C 64% 4.5 mph E7.2 kmh E 6.0 mph9.7 kmh 29.94 in1013.9 mb 0.00 in0.0 mm 0.00 in/hr0.0 mm/hr 0.15 in3.8 mm
06:10 PM 72.9°F22.7°C 60.9°F16.1°C 66% 5.9 mph E9.5 kmh E 8.0 mph12.9 kmh 29.94 in1013.9 mb 0.00 in0.0 mm 0.00 in/hr0.0 mm/hr 0.15 in3.8 mm
06:00 PM 73.4°F23.0°C 61.4°F16.3°C 66% 6.3 mph E10.1 kmh E 9.0 mph14.5 kmh 29.93 in1013.5 mb 0.00 in0.0 mm 0.00 in/hr0.0 mm/hr 0.15 in3.8 mm
05:50 PM 73.8°F23.2°C 61.3°F16.3°C 65% 5.9 mph E9.5 kmh E 9.0 mph14.5 kmh 29.93 in1013.5 mb 0.00 in0.0 mm 0.00 in/hr0.0 mm/hr 0.15 in3.8 mm
05:40 PM 74.0°F23.3°C 61.9°F16.6°C 66% 6.4 mph ESE10.3 kmh ESE 8.0 mph12.9 kmh 29.92 in1013.2 mb 0.00 in0.0 mm 0.00 in/hr0.0 mm/hr 0.15 in3.8 mm
05:30 PM 74.0°F23.3°C 63.2°F17.3°C 69% 8.3 mph E13.4 kmh E 12.0 mph19.3 kmh 29.92 in1013.2 mb 0.00 in0.0 mm 0.00 in/hr0.0 mm/hr 0.15 in3.8 mm
05:20 PM 74.2°F23.4°C 63.8°F17.7°C 70% 7.4 mph ENE11.9 kmh ENE 11.0 mph17.7 kmh 29.92 in1013.2 mb 0.00 in0.0 mm 0.00 in/hr0.0 mm/hr 0.15 in3.8 mm
05:10 PM 74.3°F23.5°C 63.9°F17.7°C 70% 8.5 mph E13.7 kmh E 12.0 mph19.3 kmh 29.91 in1012.9 mb 0.00 in0.0 mm 0.00 in/hr0.0 mm/hr 0.15 in3.8 mm
05:00 PM 75.1°F23.9°C 64.2°F17.9°C 69% 6.2 mph E10.0 kmh E 10.0 mph16.1 kmh 29.91 in1012.9 mb 0.00 in0.0 mm 0.00 in/hr0.0 mm/hr 0.15 in3.8 mm
04:50 PM 76.1°F24.5°C 64.8°F18.2°C 68% 7.2 mph E11.6 kmh E 9.0 mph14.5 kmh 29.91 in1012.9 mb 0.00 in0.0 mm 0.00 in/hr0.0 mm/hr 0.15 in3.8 mm
04:40 PM 77.1°F25.1°C 65.3°F18.5°C 67% 7.0 mph E11.3 kmh E 20.0 mph32.2 kmh 29.91 in1012.9 mb 0.00 in0.0 mm 0.00 in/hr0.0 mm/hr 0.15 in3.8 mm
04:30 PM 76.7°F24.8°C 65.4°F18.6°C 68% 7.1 mph E11.4 kmh E 11.0 mph17.7 kmh 29.90 in1012.5 mb 0.00 in0.0 mm 0.00 in/hr0.0 mm/hr 0.15 in3.8 mm
04:20 PM 76.3°F24.6°C 65.0°F18.3°C 68% 9.6 mph E15.4 kmh E 20.0 mph32.2 kmh 29.90 in1012.5 mb 0.00 in0.0 mm 0.00 in/hr0.0 mm/hr 0.15 in3.8 mm
04:10 PM 75.4°F24.1°C 64.5°F18.1°C 69% 9.2 mph E14.8 kmh E 13.0 mph20.9 kmh 29.90 in1012.5 mb 0.00 in0.0 mm 0.00 in/hr0.0 mm/hr 0.15 in3.8 mm
04:00 PM 75.7°F24.3°C 64.8°F18.2°C 69% 10.0 mph E16.1 kmh E 14.0 mph22.5 kmh 29.90 in1012.5 mb 0.00 in0.0 mm 0.00 in/hr0.0 mm/hr 0.15 in3.8 mm
03:50 PM 76.6°F24.8°C 65.2°F18.4°C 68% 8.6 mph NE13.8 kmh NE 17.0 mph27.4 kmh 29.90 in1012.5 mb 0.00 in0.0 mm 0.00 in/hr0.0 mm/hr 0.15 in3.8 mm
03:40 PM 76.6°F24.8°C 65.2°F18.4°C 68% 7.8 mph SE12.6 kmh SE 8.0 mph12.9 kmh 29.90 in1012.5 mb 0.00 in0.0 mm 0.00 in/hr0.0 mm/hr 0.15 in3.8 mm
03:30 PM 77.0°F25.0°C 65.6°F18.7°C 68% 6.6 mph E10.6 kmh E 13.0 mph20.9 kmh 29.89 in1012.2 mb 0.00 in0.0 mm 0.00 in/hr0.0 mm/hr 0.15 in3.8 mm
03:20 PM 77.5°F25.3°C 66.1°F18.9°C 68% 7.0 mph ENE11.3 kmh ENE 11.0 mph17.7 kmh 29.89 in1012.2 mb 0.00 in0.0 mm 0.00 in/hr0.0 mm/hr 0.15 in3.8 mm
03:10 PM 78.4°F25.8°C 67.0°F19.4°C 68% 10.2 mph E16.4 kmh E 15.0 mph24.1 kmh 29.89 in1012.2 mb 0.00 in0.0 mm 0.00 in/hr0.0 mm/hr 0.15 in3.8 mm
03:00 PM 80.2°F26.8°C 67.8°F19.9°C 66% 9.7 mph ESE15.6 kmh ESE 14.0 mph22.5 kmh 29.89 in1012.2 mb 0.00 in0.0 mm 0.00 in/hr0.0 mm/hr 0.15 in3.8 mm
02:50 PM 81.0°F27.2°C 67.7°F19.8°C 64% 10.2 mph E16.4 kmh E 15.0 mph24.1 kmh 29.89 in1012.2 mb 0.00 in0.0 mm 0.00 in/hr0.0 mm/hr 0.15 in3.8 mm
02:40 PM 81.2°F27.3°C 68.3°F20.2°C 65% 9.9 mph E15.9 kmh E 14.0 mph22.5 kmh 29.89 in1012.2 mb 0.00 in0.0 mm 0.00 in/hr0.0 mm/hr 0.15 in3.8 mm
02:30 PM 81.1°F27.3°C 68.7°F20.4°C 66% 6.6 mph E10.6 kmh E 16.0 mph25.7 kmh 29.90 in1012.5 mb 0.00 in0.0 mm 0.00 in/hr0.0 mm/hr 0.15 in3.8 mm
02:20 PM 81.5°F27.5°C 67.7°F19.8°C 63% 8.5 mph E13.7 kmh E 14.0 mph22.5 kmh 29.89 in1012.2 mb 0.00 in0.0 mm 0.00 in/hr0.0 mm/hr 0.15 in3.8 mm
02:10 PM 81.5°F27.5°C 68.1°F20.1°C 64% 8.8 mph E14.2 kmh E 15.0 mph24.1 kmh 29.90 in1012.5 mb 0.00 in0.0 mm 0.00 in/hr0.0 mm/hr 0.15 in3.8 mm
02:00 PM 81.2°F27.3°C 67.4°F19.7°C 63% 11.2 mph E18.0 kmh E 19.0 mph30.6 kmh 29.90 in1012.5 mb 0.00 in0.0 mm 0.00 in/hr0.0 mm/hr 0.15 in3.8 mm
01:50 PM 81.4°F27.4°C 68.1°F20.1°C 64% 9.3 mph NE15.0 kmh NE 14.0 mph22.5 kmh 29.90 in1012.5 mb 0.00 in0.0 mm 0.00 in/hr0.0 mm/hr 0.15 in3.8 mm
01:40 PM 81.2°F27.3°C 68.7°F20.4°C 66% 11.9 mph ENE19.2 kmh ENE 14.0 mph22.5 kmh 29.90 in1012.5 mb 0.00 in0.0 mm 0.00 in/hr0.0 mm/hr 0.15 in3.8 mm
01:30 PM 81.5°F27.5°C 69.1°F20.6°C 66% 9.9 mph E15.9 kmh E 15.0 mph24.1 kmh 29.90 in1012.5 mb 0.00 in0.0 mm 0.00 in/hr0.0 mm/hr 0.15 in3.8 mm
01:20 PM 81.5°F27.5°C 69.5°F20.8°C 67% 10.2 mph E16.4 kmh E 11.0 mph17.7 kmh 29.90 in1012.5 mb 0.00 in0.0 mm 0.00 in/hr0.0 mm/hr 0.15 in3.8 mm
01:10 PM 81.4°F27.4°C 69.8°F21.0°C 68% 9.9 mph ENE15.9 kmh ENE 15.0 mph24.1 kmh 29.91 in1012.9 mb 0.00 in0.0 mm 0.00 in/hr0.0 mm/hr 0.15 in3.8 mm
01:00 PM 81.6°F27.6°C 70.5°F21.4°C 69% 9.0 mph E14.5 kmh E 14.0 mph22.5 kmh 29.91 in1012.9 mb 0.00 in0.0 mm 0.00 in/hr0.0 mm/hr 0.15 in3.8 mm
12:50 PM 81.7°F27.6°C 71.4°F21.9°C 71% 7.8 mph NE12.6 kmh NE 15.0 mph24.1 kmh 29.92 in1013.2 mb 0.00 in0.0 mm 0.00 in/hr0.0 mm/hr 0.15 in3.8 mm
12:40 PM 80.9°F27.2°C 70.1°F21.2°C 70% 6.0 mph E9.7 kmh E 10.0 mph16.1 kmh 29.92 in1013.2 mb 0.00 in0.0 mm 0.00 in/hr0.0 mm/hr 0.15 in3.8 mm
12:30 PM 80.4°F26.9°C 68.9°F20.5°C 68% 7.2 mph E11.6 kmh E 11.0 mph17.7 kmh 29.92 in1013.2 mb 0.00 in0.0 mm 0.00 in/hr0.0 mm/hr 0.15 in3.8 mm
12:20 PM 80.2°F26.8°C 69.5°F20.8°C 70% 8.8 mph E14.2 kmh E 13.0 mph20.9 kmh 29.93 in1013.5 mb 0.00 in0.0 mm 0.00 in/hr0.0 mm/hr 0.15 in3.8 mm
12:10 PM 79.3°F26.3°C 69.5°F20.8°C 72% 6.8 mph ESE10.9 kmh ESE 11.0 mph17.7 kmh 29.93 in1013.5 mb 0.00 in0.0 mm 0.00 in/hr0.0 mm/hr 0.15 in3.8 mm
12:00 PM 79.3°F26.3°C 68.6°F20.3°C 70% 7.3 mph SE11.7 kmh SE 7.0 mph11.3 kmh 29.94 in1013.9 mb 0.00 in0.0 mm 0.00 in/hr0.0 mm/hr 0.15 in3.8 mm
11:50 AM 79.8°F26.6°C 68.3°F20.2°C 68% 8.7 mph E14.0 kmh E 13.0 mph20.9 kmh 29.94 in1013.9 mb 0.00 in0.0 mm 0.00 in/hr0.0 mm/hr 0.15 in3.8 mm
11:40 AM 79.9°F26.6°C 68.8°F20.4°C 69% 9.3 mph E15.0 kmh E 15.0 mph24.1 kmh 29.95 in1014.2 mb 0.00 in0.0 mm 0.00 in/hr0.0 mm/hr 0.15 in3.8 mm
11:30 AM 79.7°F26.5°C 69.4°F20.8°C 71% 5.1 mph E8.2 kmh E 12.0 mph19.3 kmh 29.95 in1014.2 mb 0.00 in0.0 mm 0.00 in/hr0.0 mm/hr 0.15 in3.8 mm
11:20 AM 79.4°F26.3°C 68.3°F20.2°C 69% 10.2 mph ESE16.4 kmh ESE 11.0 mph17.7 kmh 29.95 in1014.2 mb 0.00 in0.0 mm 0.00 in/hr0.0 mm/hr 0.15 in3.8 mm
11:10 AM 78.6°F25.9°C 67.6°F19.8°C 69% 10.4 mph E16.7 kmh E 15.0 mph24.1 kmh 29.96 in1014.6 mb 0.00 in0.0 mm 0.00 in/hr0.0 mm/hr 0.15 in3.8 mm
11:00 AM 78.3°F25.7°C 68.9°F20.5°C 73% 7.2 mph ENE11.6 kmh ENE 17.0 mph27.4 kmh 29.95 in1014.2 mb 0.00 in0.0 mm 0.00 in/hr0.0 mm/hr 0.15 in3.8 mm
10:50 AM 77.7°F25.4°C 68.0°F20.0°C 72% 6.6 mph E10.6 kmh E 13.0 mph20.9 kmh 29.96 in1014.6 mb 0.00 in0.0 mm 0.00 in/hr0.0 mm/hr 0.15 in3.8 mm
10:40 AM 77.1°F25.1°C 68.6°F20.3°C 75% 5.7 mph E9.2 kmh E 9.0 mph14.5 kmh 29.96 in1014.6 mb 0.00 in0.0 mm 0.00 in/hr0.0 mm/hr 0.15 in3.8 mm
10:30 AM 77.2°F25.1°C 69.8°F21.0°C 78% 9.7 mph ENE15.6 kmh ENE 14.0 mph22.5 kmh 29.97 in1014.9 mb 0.00 in0.0 mm 0.00 in/hr0.0 mm/hr 0.15 in3.8 mm
10:20 AM 78.3°F25.7°C 69.7°F20.9°C 75% 12.3 mph E19.8 kmh E 17.0 mph27.4 kmh 29.97 in1014.9 mb 0.00 in0.0 mm 0.00 in/hr0.0 mm/hr 0.15 in3.8 mm
10:10 AM 77.4°F25.2°C 68.4°F20.2°C 74% 6.8 mph E10.9 kmh E 12.0 mph19.3 kmh 29.96 in1014.6 mb 0.00 in0.0 mm 0.00 in/hr0.0 mm/hr 0.15 in3.8 mm
10:00 AM 77.9°F25.5°C 68.9°F20.5°C 74% 7.8 mph NE12.6 kmh NE 13.0 mph20.9 kmh 29.96 in1014.6 mb 0.00 in0.0 mm 0.00 in/hr0.0 mm/hr 0.15 in3.8 mm
09:50 AM 77.6°F25.3°C 69.4°F20.8°C 76% 7.6 mph ENE12.2 kmh ENE 15.0 mph24.1 kmh 29.96 in1014.6 mb 0.00 in0.0 mm 0.00 in/hr0.0 mm/hr 0.15 in3.8 mm
09:40 AM 76.2°F24.6°C 69.2°F20.7°C 79% 6.6 mph E10.6 kmh E 9.0 mph14.5 kmh 29.97 in1014.9 mb 0.00 in0.0 mm 0.00 in/hr0.0 mm/hr 0.15 in3.8 mm
09:30 AM 75.1°F23.9°C 69.2°F20.7°C 82% 8.8 mph ENE14.2 kmh ENE 14.0 mph22.5 kmh 29.97 in1014.9 mb 0.00 in0.0 mm 0.00 in/hr0.0 mm/hr 0.15 in3.8 mm
09:20 AM 76.7°F24.8°C 69.7°F20.9°C 79% 8.6 mph ENE13.8 kmh ENE 14.0 mph22.5 kmh 29.96 in1014.6 mb 0.00 in0.0 mm 0.00 in/hr0.0 mm/hr 0.15 in3.8 mm
09:10 AM 77.3°F25.2°C 69.2°F20.7°C 76% 7.1 mph E11.4 kmh E 12.0 mph19.3 kmh 29.96 in1014.6 mb 0.00 in0.0 mm 0.00 in/hr0.0 mm/hr 0.15 in3.8 mm
09:00 AM 77.2°F25.1°C 69.0°F20.6°C 76% 7.7 mph E12.4 kmh E 11.0 mph17.7 kmh 29.96 in1014.6 mb 0.00 in0.0 mm 0.00 in/hr0.0 mm/hr 0.15 in3.8 mm
08:50 AM 76.7°F24.8°C 68.9°F20.5°C 77% 6.7 mph ENE10.8 kmh ENE 10.0 mph16.1 kmh 29.96 in1014.6 mb 0.00 in0.0 mm 0.00 in/hr0.0 mm/hr 0.15 in3.8 mm
08:40 AM 76.0°F24.4°C 68.6°F20.3°C 78% 9.3 mph E15.0 kmh E 12.0 mph19.3 kmh 29.96 in1014.6 mb 0.00 in0.0 mm 0.00 in/hr0.0 mm/hr 0.15 in3.8 mm
08:30 AM 75.7°F24.3°C 68.7°F20.4°C 79% 8.8 mph E14.2 kmh E 12.0 mph19.3 kmh 29.95 in1014.2 mb 0.00 in0.0 mm 0.00 in/hr0.0 mm/hr 0.15 in3.8 mm
08:20 AM 74.9°F23.8°C 69.0°F20.6°C 82% 5.4 mph E8.7 kmh E 8.0 mph12.9 kmh 29.95 in1014.2 mb 0.00 in0.0 mm 0.00 in/hr0.0 mm/hr 0.15 in3.8 mm
08:10 AM 74.1°F23.4°C 67.9°F19.9°C 81% 6.3 mph ESE10.1 kmh ESE 5.0 mph8.0 kmh 29.96 in1014.6 mb 0.00 in0.0 mm 0.00 in/hr0.0 mm/hr 0.15 in3.8 mm
08:00 AM 72.5°F22.5°C 67.4°F19.7°C 84% Calm Calm -- 29.96 in1014.6 mb 0.00 in0.0 mm 0.00 in/hr0.0 mm/hr 0.15 in3.8 mm
07:50 AM 71.0°F21.7°C 66.0°F18.9°C 84% Calm Calm -- 29.96 in1014.6 mb 0.00 in0.0 mm 0.00 in/hr0.0 mm/hr 0.15 in3.8 mm
07:40 AM 69.9°F21.1°C 65.5°F18.6°C 86% 4.9 mph E7.9 kmh E 8.0 mph12.9 kmh 29.95 in1014.2 mb 0.00 in0.0 mm 0.00 in/hr0.0 mm/hr 0.15 in3.8 mm
07:30 AM 68.6°F20.3°C 65.2°F18.4°C 89% 4.9 mph E7.9 kmh E 11.0 mph17.7 kmh 29.95 in1014.2 mb 0.00 in0.0 mm 0.00 in/hr0.0 mm/hr 0.15 in3.8 mm
07:20 AM 67.1°F19.5°C 64.0°F17.8°C 90% 3.8 mph E6.1 kmh E 5.0 mph8.0 kmh 29.95 in1014.2 mb 0.00 in0.0 mm 0.00 in/hr0.0 mm/hr 0.15 in3.8 mm
07:10 AM 66.8°F19.3°C 63.8°F17.7°C 90% 3.4 mph SE5.5 kmh SE 5.0 mph8.0 kmh 29.95 in1014.2 mb 0.00 in0.0 mm 0.00 in/hr0.0 mm/hr 0.15 in3.8 mm
07:00 AM 66.5°F19.2°C 64.1°F17.8°C 92% 5.0 mph SE8.0 kmh SE 6.0 mph9.7 kmh 29.94 in1013.9 mb 0.00 in0.0 mm 0.00 in/hr0.0 mm/hr 0.15 in3.8 mm
06:50 AM 66.1°F18.9°C 63.7°F17.6°C 92% 2.0 mph SE3.2 kmh SE -- 29.94 in1013.9 mb 0.00 in0.0 mm 0.00 in/hr0.0 mm/hr 0.15 in3.8 mm
06:40 AM 65.8°F18.8°C 63.4°F17.4°C 92% 1.1 mph SE1.8 kmh SE 4.0 mph6.4 kmh 29.93 in1013.5 mb 0.00 in0.0 mm 0.00 in/hr0.0 mm/hr 0.15 in3.8 mm
06:30 AM 65.6°F18.7°C 63.2°F17.3°C 92% 4.6 mph E7.4 kmh E 6.0 mph9.7 kmh 29.93 in1013.5 mb 0.00 in0.0 mm 0.00 in/hr0.0 mm/hr 0.15 in3.8 mm
06:20 AM 65.2°F18.4°C 63.5°F17.5°C 94% 4.0 mph SE6.4 kmh SE 5.0 mph8.0 kmh 29.92 in1013.2 mb 0.00 in0.0 mm 0.00 in/hr0.0 mm/hr 0.15 in3.8 mm
06:10 AM 64.8°F18.2°C 63.3°F17.4°C 95% 3.6 mph E5.8 kmh E 5.0 mph8.0 kmh 29.92 in1013.2 mb 0.00 in0.0 mm 0.00 in/hr0.0 mm/hr 0.15 in3.8 mm
06:00 AM 64.3°F17.9°C 63.1°F17.3°C 96% 3.7 mph ESE6.0 kmh ESE 6.0 mph9.7 kmh 29.92 in1013.2 mb 0.01 in0.3 mm 0.01 in/hr0.3 mm/hr 0.15 in3.8 mm
05:50 AM 64.0°F17.8°C 62.5°F16.9°C 95% 0.8 mph SE1.3 kmh SE 3.0 mph4.8 kmh 29.92 in1013.2 mb 0.00 in0.0 mm 0.00 in/hr0.0 mm/hr 0.14 in3.6 mm
05:40 AM 64.0°F17.8°C 62.5°F16.9°C 95% 0.2 mph SE0.3 kmh SE 4.0 mph6.4 kmh 29.92 in1013.2 mb 0.00 in0.0 mm 0.00 in/hr0.0 mm/hr 0.14 in3.6 mm
05:30 AM 64.0°F17.8°C 62.5°F16.9°C 95% 1.7 mph E2.7 kmh E 3.0 mph4.8 kmh 29.91 in1012.9 mb 0.00 in0.0 mm 0.00 in/hr0.0 mm/hr 0.14 in3.6 mm
05:20 AM 64.0°F17.8°C 62.5°F16.9°C 95% Calm Calm -- 29.91 in1012.9 mb 0.00 in0.0 mm 0.00 in/hr0.0 mm/hr 0.14 in3.6 mm
05:10 AM 64.0°F17.8°C 62.5°F16.9°C 95% Calm Calm -- 29.91 in1012.9 mb 0.00 in0.0 mm 0.00 in/hr0.0 mm/hr 0.14 in3.6 mm
05:00 AM 64.1°F17.8°C 62.6°F17.0°C 95% Calm Calm -- 29.91 in1012.9 mb 0.00 in0.0 mm 0.00 in/hr0.0 mm/hr 0.14 in3.6 mm
04:50 AM 64.3°F17.9°C 62.8°F17.1°C 95% Calm Calm -- 29.91 in1012.9 mb 0.00 in0.0 mm 0.00 in/hr0.0 mm/hr 0.14 in3.6 mm
04:40 AM 64.3°F17.9°C 62.8°F17.1°C 95% Calm Calm -- 29.90 in1012.5 mb 0.00 in0.0 mm 0.00 in/hr0.0 mm/hr 0.14 in3.6 mm
04:30 AM 64.4°F18.0°C 62.7°F17.1°C 94% Calm Calm -- 29.90 in1012.5 mb 0.00 in0.0 mm 0.00 in/hr0.0 mm/hr 0.14 in3.6 mm
04:20 AM 64.6°F18.1°C 62.8°F17.1°C 94% Calm Calm -- 29.90 in1012.5 mb 0.00 in0.0 mm 0.00 in/hr0.0 mm/hr 0.14 in3.6 mm
04:10 AM 64.8°F18.2°C 63.0°F17.2°C 94% Calm Calm -- 29.90 in1012.5 mb 0.00 in0.0 mm 0.00 in/hr0.0 mm/hr 0.14 in3.6 mm
04:00 AM 65.0°F18.3°C 63.2°F17.3°C 94% Calm Calm -- 29.90 in1012.5 mb 0.00 in0.0 mm 0.00 in/hr0.0 mm/hr 0.14 in3.6 mm
03:50 AM 65.2°F18.4°C 63.4°F17.4°C 94% Calm Calm -- 29.90 in1012.5 mb 0.00 in0.0 mm 0.00 in/hr0.0 mm/hr 0.14 in3.6 mm
03:40 AM 65.5°F18.6°C 63.7°F17.6°C 94% Calm Calm -- 29.90 in1012.5 mb 0.00 in0.0 mm 0.00 in/hr0.0 mm/hr 0.14 in3.6 mm
03:30 AM 65.7°F18.7°C 63.9°F17.7°C 94% Calm Calm -- 29.90 in1012.5 mb 0.00 in0.0 mm 0.00 in/hr0.0 mm/hr 0.14 in3.6 mm
03:20 AM 65.8°F18.8°C 64.0°F17.8°C 94% Calm Calm -- 29.91 in1012.9 mb 0.00 in0.0 mm 0.00 in/hr0.0 mm/hr 0.14 in3.6 mm
03:10 AM 65.7°F18.7°C 63.9°F17.7°C 94% Calm Calm -- 29.91 in1012.9 mb 0.00 in0.0 mm 0.00 in/hr0.0 mm/hr 0.14 in3.6 mm
03:00 AM 65.6°F18.7°C 63.8°F17.7°C 94% Calm Calm -- 29.91 in1012.9 mb 0.00 in0.0 mm 0.00 in/hr0.0 mm/hr 0.14 in3.6 mm
02:50 AM 65.6°F18.7°C 63.5°F17.5°C 93% Calm Calm -- 29.91 in1012.9 mb 0.00 in0.0 mm 0.00 in/hr0.0 mm/hr 0.14 in3.6 mm
02:40 AM 65.7°F18.7°C 63.3°F17.4°C 92% 2.6 mph E4.2 kmh E 5.0 mph8.0 kmh 29.91 in1012.9 mb 0.00 in0.0 mm 0.00 in/hr0.0 mm/hr 0.14 in3.6 mm
02:30 AM 66.1°F18.9°C 64.0°F17.8°C 93% Calm Calm -- 29.91 in1012.9 mb 0.00 in0.0 mm 0.00 in/hr0.0 mm/hr 0.14 in3.6 mm
02:20 AM 66.3°F19.1°C 64.2°F17.9°C 93% 0.9 mph E1.4 kmh E 3.0 mph4.8 kmh 29.92 in1013.2 mb 0.00 in0.0 mm 0.00 in/hr0.0 mm/hr 0.14 in3.6 mm
02:10 AM 66.6°F19.2°C 64.5°F18.1°C 93% Calm Calm -- 29.92 in1013.2 mb 0.00 in0.0 mm 0.00 in/hr0.0 mm/hr 0.14 in3.6 mm
02:00 AM 67.0°F19.4°C 64.9°F18.3°C 93% Calm Calm -- 29.92 in1013.2 mb 0.00 in0.0 mm 0.00 in/hr0.0 mm/hr 0.14 in3.6 mm
01:50 AM 67.4°F19.7°C 65.3°F18.5°C 93% Calm Calm -- 29.93 in1013.5 mb 0.00 in0.0 mm 0.00 in/hr0.0 mm/hr 0.14 in3.6 mm
01:40 AM 67.7°F19.8°C 65.6°F18.7°C 93% 0.1 mph E0.2 kmh E -- 29.93 in1013.5 mb 0.00 in0.0 mm 0.00 in/hr0.0 mm/hr 0.14 in3.6 mm
01:30 AM 68.1°F20.1°C 66.0°F18.9°C 93% Calm Calm -- 29.93 in1013.5 mb 0.00 in0.0 mm 0.00 in/hr0.0 mm/hr 0.14 in3.6 mm
01:20 AM 68.3°F20.2°C 66.2°F19.0°C 93% 3.3 mph E5.3 kmh E 6.0 mph9.7 kmh 29.93 in1013.5 mb 0.00 in0.0 mm 0.00 in/hr0.0 mm/hr 0.14 in3.6 mm
01:10 AM 68.4°F20.2°C 66.6°F19.2°C 94% 5.5 mph E8.9 kmh E 9.0 mph14.5 kmh 29.93 in1013.5 mb 0.00 in0.0 mm 0.00 in/hr0.0 mm/hr 0.14 in3.6 mm
01:00 AM 68.6°F20.3°C 66.8°F19.3°C 94% 4.6 mph E7.4 kmh E 13.0 mph20.9 kmh 29.93 in1013.5 mb 0.01 in0.3 mm 0.01 in/hr0.3 mm/hr 0.14 in3.6 mm
12:50 AM 68.7°F20.4°C 67.2°F19.6°C 95% 7.9 mph ENE12.7 kmh ENE 8.0 mph12.9 kmh 29.94 in1013.9 mb 0.02 in0.5 mm 0.12 in/hr3.0 mm/hr 0.13 in3.3 mm
12:40 AM 69.0°F20.6°C 67.5°F19.7°C 95% 5.9 mph E9.5 kmh E 8.0 mph12.9 kmh 29.94 in1013.9 mb 0.01 in0.3 mm 0.06 in/hr1.5 mm/hr 0.11 in2.8 mm
12:30 AM 69.1°F20.6°C 67.6°F19.8°C 95% 3.7 mph ENE6.0 kmh ENE 7.0 mph11.3 kmh 29.95 in1014.2 mb 0.00 in0.0 mm 0.00 in/hr0.0 mm/hr 0.10 in2.5 mm
12:20 AM 69.1°F20.6°C 67.6°F19.8°C 95% 4.3 mph ENE6.9 kmh ENE 8.0 mph12.9 kmh 29.95 in1014.2 mb 0.04 in1.0 mm 0.24 in/hr6.1 mm/hr 0.10 in2.5 mm
12:10 AM 69.1°F20.6°C 67.6°F19.8°C 95% 2.9 mph E4.7 kmh E 6.0 mph9.7 kmh 29.95 in1014.2 mb 0.07 in1.8 mm 0.42 in/hr10.7 mm/hr 0.07 in1.8 mm
12:00 AM 69.0°F20.6°C 67.5°F19.7°C 95% 5.1 mph ENE8.2 kmh ENE 10.0 mph16.1 kmh 29.96 in1014.6 mb 0.06 in1.5 mm 0.00 in/hr0.0 mm/hr 0.01 in0.3 mm